sensor_id;sensor_type;location;lat;lon;timestamp;P1;durP1;ratioP1;P2;durP2;ratioP2
75785;SDS011;64402;44.708;37.644;2023-06-14T00:02:13;7.90;;;3.83;;
75785;SDS011;64402;44.708;37.644;2023-06-14T00:04:39;11.98;;;3.90;;
75785;SDS011;64402;44.708;37.644;2023-06-14T00:09:34;9.05;;;4.22;;
75785;SDS011;64402;44.708;37.644;2023-06-14T00:12:01;11.38;;;4.00;;
75785;SDS011;64402;44.708;37.644;2023-06-14T00:14:27;9.20;;;3.88;;
75785;SDS011;64402;44.708;37.644;2023-06-14T00:16:53;7.68;;;3.75;;
75785;SDS011;64402;44.708;37.644;2023-06-14T00:19:24;10.80;;;4.00;;
75785;SDS011;64402;44.708;37.644;2023-06-14T00:21:51;11.35;;;4.32;;
75785;SDS011;64402;44.708;37.644;2023-06-14T00:26:45;9.27;;;3.75;;
75785;SDS011;64402;44.708;37.644;2023-06-14T00:29:11;7.20;;;3.88;;
75785;SDS011;64402;44.708;37.644;2023-06-14T00:31:37;11.75;;;3.92;;
75785;SDS011;64402;44.708;37.644;2023-06-14T00:34:03;9.48;;;3.58;;
75785;SDS011;64402;44.708;37.644;2023-06-14T00:36:29;7.78;;;3.70;;
75785;SDS011;64402;44.708;37.644;2023-06-14T00:38:55;8.80;;;3.97;;
75785;SDS011;64402;44.708;37.644;2023-06-14T00:41:21;7.55;;;3.42;;
75785;SDS011;64402;44.708;37.644;2023-06-14T00:43:47;10.32;;;3.67;;
75785;SDS011;64402;44.708;37.644;2023-06-14T00:46:13;9.80;;;3.65;;
75785;SDS011;64402;44.708;37.644;2023-06-14T00:48:40;9.95;;;4.00;;
75785;SDS011;64402;44.708;37.644;2023-06-14T00:51:06;8.45;;;3.53;;
75785;SDS011;64402;44.708;37.644;2023-06-14T00:53:33;10.63;;;3.80;;
75785;SDS011;64402;44.708;37.644;2023-06-14T00:56:05;9.40;;;3.33;;
75785;SDS011;64402;44.708;37.644;2023-06-14T00:58:31;9.80;;;4.32;;
75785;SDS011;64402;44.708;37.644;2023-06-14T01:00:58;8.55;;;3.85;;
75785;SDS011;64402;44.708;37.644;2023-06-14T01:03:24;7.78;;;4.13;;
75785;SDS011;64402;44.708;37.644;2023-06-14T01:05:51;8.48;;;4.07;;
75785;SDS011;64402;44.708;37.644;2023-06-14T01:09:01;9.07;;;3.55;;
75785;SDS011;64402;44.708;37.644;2023-06-14T01:13:56;10.00;;;3.53;;
75785;SDS011;64402;44.708;37.644;2023-06-14T01:16:25;9.43;;;3.20;;
75785;SDS011;64402;44.708;37.644;2023-06-14T01:18:52;6.90;;;3.10;;
75785;SDS011;64402;44.708;37.644;2023-06-14T01:21:25;10.02;;;3.35;;
75785;SDS011;64402;44.708;37.644;2023-06-14T01:23:53;10.68;;;3.28;;
75785;SDS011;64402;44.708;37.644;2023-06-14T01:26:20;11.23;;;3.53;;
75785;SDS011;64402;44.708;37.644;2023-06-14T01:28:47;8.23;;;3.50;;
75785;SDS011;64402;44.708;37.644;2023-06-14T01:31:19;8.75;;;3.30;;
75785;SDS011;64402;44.708;37.644;2023-06-14T01:33:49;7.80;;;3.40;;
75785;SDS011;64402;44.708;37.644;2023-06-14T01:36:19;10.35;;;3.47;;
75785;SDS011;64402;44.708;37.644;2023-06-14T01:38:48;7.47;;;3.67;;
75785;SDS011;64402;44.708;37.644;2023-06-14T01:41:17;6.78;;;3.40;;
75785;SDS011;64402;44.708;37.644;2023-06-14T01:43:45;11.57;;;3.55;;
75785;SDS011;64402;44.708;37.644;2023-06-14T01:46:14;11.13;;;3.42;;
75785;SDS011;64402;44.708;37.644;2023-06-14T01:48:41;10.43;;;3.70;;
75785;SDS011;64402;44.708;37.644;2023-06-14T01:51:08;9.35;;;3.65;;
75785;SDS011;64402;44.708;37.644;2023-06-14T01:53:34;7.85;;;3.80;;
75785;SDS011;64402;44.708;37.644;2023-06-14T01:56:00;9.50;;;3.85;;
75785;SDS011;64402;44.708;37.644;2023-06-14T01:58:26;8.48;;;3.92;;
75785;SDS011;64402;44.708;37.644;2023-06-14T02:00:53;10.45;;;4.50;;
75785;SDS011;64402;44.708;37.644;2023-06-14T02:03:20;8.80;;;4.45;;
75785;SDS011;64402;44.708;37.644;2023-06-14T02:05:47;11.60;;;4.03;;
75785;SDS011;64402;44.708;37.644;2023-06-14T02:08:13;8.48;;;3.65;;
75785;SDS011;64402;44.708;37.644;2023-06-14T02:10:39;8.48;;;3.80;;
75785;SDS011;64402;44.708;37.644;2023-06-14T02:13:05;10.07;;;3.78;;
75785;SDS011;64402;44.708;37.644;2023-06-14T02:15:31;8.02;;;3.90;;
75785;SDS011;64402;44.708;37.644;2023-06-14T02:18:01;9.52;;;3.80;;
75785;SDS011;64402;44.708;37.644;2023-06-14T02:20:28;10.60;;;4.07;;
75785;SDS011;64402;44.708;37.644;2023-06-14T02:22:54;8.93;;;3.80;;
75785;SDS011;64402;44.708;37.644;2023-06-14T02:25:20;8.70;;;3.80;;
75785;SDS011;64402;44.708;37.644;2023-06-14T02:27:47;9.45;;;5.32;;
75785;SDS011;64402;44.708;37.644;2023-06-14T02:30:13;12.48;;;7.18;;
75785;SDS011;64402;44.708;37.644;2023-06-14T02:32:40;12.63;;;7.13;;
75785;SDS011;64402;44.708;37.644;2023-06-14T02:35:08;8.38;;;4.00;;
75785;SDS011;64402;44.708;37.644;2023-06-14T02:37:34;7.97;;;3.85;;
75785;SDS011;64402;44.708;37.644;2023-06-14T02:40:01;8.23;;;4.03;;
75785;SDS011;64402;44.708;37.644;2023-06-14T02:42:27;10.35;;;4.18;;
75785;SDS011;64402;44.708;37.644;2023-06-14T02:44:53;8.00;;;3.88;;
75785;SDS011;64402;44.708;37.644;2023-06-14T02:47:19;13.40;;;4.63;;
75785;SDS011;64402;44.708;37.644;2023-06-14T02:49:45;14.90;;;4.63;;
75785;SDS011;64402;44.708;37.644;2023-06-14T02:52:12;8.10;;;3.55;;
75785;SDS011;64402;44.708;37.644;2023-06-14T02:54:38;8.32;;;3.88;;
75785;SDS011;64402;44.708;37.644;2023-06-14T02:57:05;8.98;;;3.45;;
75785;SDS011;64402;44.708;37.644;2023-06-14T02:59:33;15.55;;;4.38;;
75785;SDS011;64402;44.708;37.644;2023-06-14T03:02:00;9.98;;;4.10;;
75785;SDS011;64402;44.708;37.644;2023-06-14T03:04:26;9.25;;;3.92;;
75785;SDS011;64402;44.708;37.644;2023-06-14T03:06:54;8.90;;;3.63;;
75785;SDS011;64402;44.708;37.644;2023-06-14T03:09:21;13.95;;;3.72;;
75785;SDS011;64402;44.708;37.644;2023-06-14T03:11:48;9.38;;;3.67;;
75785;SDS011;64402;44.708;37.644;2023-06-14T03:14:14;8.82;;;3.50;;
75785;SDS011;64402;44.708;37.644;2023-06-14T03:16:40;9.63;;;3.83;;
75785;SDS011;64402;44.708;37.644;2023-06-14T03:19:06;11.50;;;3.97;;
75785;SDS011;64402;44.708;37.644;2023-06-14T03:21:32;9.48;;;4.25;;
75785;SDS011;64402;44.708;37.644;2023-06-14T03:26:26;8.82;;;3.97;;
75785;SDS011;64402;44.708;37.644;2023-06-14T03:28:52;10.38;;;4.82;;
75785;SDS011;64402;44.708;37.644;2023-06-14T03:31:18;10.27;;;4.05;;
75785;SDS011;64402;44.708;37.644;2023-06-14T03:33:44;9.77;;;4.10;;
75785;SDS011;64402;44.708;37.644;2023-06-14T03:36:11;17.13;;;4.55;;
75785;SDS011;64402;44.708;37.644;2023-06-14T03:38:37;12.27;;;4.38;;
75785;SDS011;64402;44.708;37.644;2023-06-14T03:41:03;11.43;;;4.30;;
75785;SDS011;64402;44.708;37.644;2023-06-14T03:43:29;9.65;;;3.90;;
75785;SDS011;64402;44.708;37.644;2023-06-14T03:45:55;10.90;;;4.38;;
75785;SDS011;64402;44.708;37.644;2023-06-14T03:48:22;10.98;;;4.45;;
75785;SDS011;64402;44.708;37.644;2023-06-14T03:50:48;10.35;;;4.53;;
75785;SDS011;64402;44.708;37.644;2023-06-14T03:53:14;9.30;;;4.57;;
75785;SDS011;64402;44.708;37.644;2023-06-14T03:55:40;10.98;;;4.53;;
75785;SDS011;64402;44.708;37.644;2023-06-14T03:58:06;11.60;;;5.10;;
75785;SDS011;64402;44.708;37.644;2023-06-14T04:00:33;12.98;;;5.15;;
75785;SDS011;64402;44.708;37.644;2023-06-14T04:02:59;10.68;;;4.43;;
75785;SDS011;64402;44.708;37.644;2023-06-14T04:05:25;10.43;;;5.00;;
75785;SDS011;64402;44.708;37.644;2023-06-14T04:07:54;13.23;;;5.63;;
75785;SDS011;64402;44.708;37.644;2023-06-14T04:10:21;9.13;;;3.95;;
75785;SDS011;64402;44.708;37.644;2023-06-14T04:12:47;9.00;;;3.97;;
75785;SDS011;64402;44.708;37.644;2023-06-14T04:15:14;12.55;;;4.22;;
75785;SDS011;64402;44.708;37.644;2023-06-14T04:17:41;9.60;;;3.92;;
75785;SDS011;64402;44.708;37.644;2023-06-14T04:20:07;15.40;;;4.53;;
75785;SDS011;64402;44.708;37.644;2023-06-14T04:22:35;11.30;;;4.72;;
75785;SDS011;64402;44.708;37.644;2023-06-14T04:25:01;11.93;;;4.28;;
75785;SDS011;64402;44.708;37.644;2023-06-14T04:27:28;10.02;;;4.20;;
75785;SDS011;64402;44.708;37.644;2023-06-14T04:29:56;12.48;;;4.88;;
75785;SDS011;64402;44.708;37.644;2023-06-14T04:32:23;12.05;;;4.47;;
75785;SDS011;64402;44.708;37.644;2023-06-14T04:34:55;9.55;;;4.05;;
75785;SDS011;64402;44.708;37.644;2023-06-14T04:37:22;9.95;;;4.68;;
75785;SDS011;64402;44.708;37.644;2023-06-14T04:39:50;14.07;;;5.05;;
75785;SDS011;64402;44.708;37.644;2023-06-14T04:42:17;10.88;;;4.55;;
75785;SDS011;64402;44.708;37.644;2023-06-14T04:44:46;11.05;;;4.43;;
75785;SDS011;64402;44.708;37.644;2023-06-14T04:47:12;12.60;;;5.22;;
75785;SDS011;64402;44.708;37.644;2023-06-14T04:49:41;13.65;;;5.05;;
75785;SDS011;64402;44.708;37.644;2023-06-14T04:52:07;11.40;;;5.30;;
75785;SDS011;64402;44.708;37.644;2023-06-14T04:54:38;9.15;;;4.22;;
75785;SDS011;64402;44.708;37.644;2023-06-14T04:57:10;11.88;;;3.78;;
75785;SDS011;64402;44.708;37.644;2023-06-14T04:59:40;32.53;;;9.85;;
75785;SDS011;64402;44.708;37.644;2023-06-14T05:02:06;11.63;;;4.68;;
75785;SDS011;64402;44.708;37.644;2023-06-14T05:04:32;11.48;;;4.70;;
75785;SDS011;64402;44.708;37.644;2023-06-14T05:06:58;16.15;;;6.18;;
75785;SDS011;64402;44.708;37.644;2023-06-14T05:09:25;20.42;;;6.90;;
75785;SDS011;64402;44.708;37.644;2023-06-14T05:11:51;15.82;;;4.88;;
75785;SDS011;64402;44.708;37.644;2023-06-14T05:14:17;13.07;;;4.38;;
75785;SDS011;64402;44.708;37.644;2023-06-14T05:16:43;12.02;;;4.65;;
75785;SDS011;64402;44.708;37.644;2023-06-14T05:19:09;9.32;;;3.08;;
75785;SDS011;64402;44.708;37.644;2023-06-14T05:21:36;15.73;;;3.75;;
75785;SDS011;64402;44.708;37.644;2023-06-14T05:24:02;8.90;;;3.15;;
75785;SDS011;64402;44.708;37.644;2023-06-14T05:26:29;8.30;;;3.05;;
75785;SDS011;64402;44.708;37.644;2023-06-14T05:28:55;9.55;;;3.60;;
75785;SDS011;64402;44.708;37.644;2023-06-14T05:31:22;13.40;;;3.95;;
75785;SDS011;64402;44.708;37.644;2023-06-14T05:33:49;9.30;;;3.80;;
75785;SDS011;64402;44.708;37.644;2023-06-14T05:36:16;20.40;;;3.78;;
75785;SDS011;64402;44.708;37.644;2023-06-14T05:38:42;9.95;;;3.60;;
75785;SDS011;64402;44.708;37.644;2023-06-14T05:41:08;9.73;;;2.97;;
75785;SDS011;64402;44.708;37.644;2023-06-14T05:43:34;9.15;;;2.67;;
75785;SDS011;64402;44.708;37.644;2023-06-14T05:46:00;12.27;;;3.50;;
75785;SDS011;64402;44.708;37.644;2023-06-14T05:48:26;11.43;;;3.17;;
75785;SDS011;64402;44.708;37.644;2023-06-14T05:50:52;11.07;;;3.25;;
75785;SDS011;64402;44.708;37.644;2023-06-14T05:53:18;10.13;;;3.30;;
75785;SDS011;64402;44.708;37.644;2023-06-14T05:55:44;8.77;;;2.70;;
75785;SDS011;64402;44.708;37.644;2023-06-14T05:58:10;8.50;;;3.05;;
75785;SDS011;64402;44.708;37.644;2023-06-14T06:00:39;9.73;;;2.83;;
75785;SDS011;64402;44.708;37.644;2023-06-14T06:03:05;8.30;;;2.80;;
75785;SDS011;64402;44.708;37.644;2023-06-14T06:05:34;8.75;;;2.88;;
75785;SDS011;64402;44.708;37.644;2023-06-14T06:08:00;9.00;;;2.80;;
75785;SDS011;64402;44.708;37.644;2023-06-14T06:10:26;7.32;;;3.20;;
75785;SDS011;64402;44.708;37.644;2023-06-14T06:12:52;8.88;;;3.10;;
75785;SDS011;64402;44.708;37.644;2023-06-14T06:15:20;12.57;;;2.90;;
75785;SDS011;64402;44.708;37.644;2023-06-14T06:17:46;9.30;;;2.90;;
75785;SDS011;64402;44.708;37.644;2023-06-14T06:20:12;13.60;;;3.10;;
75785;SDS011;64402;44.708;37.644;2023-06-14T06:22:38;7.88;;;2.60;;
75785;SDS011;64402;44.708;37.644;2023-06-14T06:25:04;9.30;;;2.60;;
75785;SDS011;64402;44.708;37.644;2023-06-14T06:27:31;7.43;;;2.67;;
75785;SDS011;64402;44.708;37.644;2023-06-14T06:29:58;10.50;;;2.70;;
75785;SDS011;64402;44.708;37.644;2023-06-14T06:32:24;19.60;;;6.03;;
75785;SDS011;64402;44.708;37.644;2023-06-14T06:34:50;9.90;;;3.33;;
75785;SDS011;64402;44.708;37.644;2023-06-14T06:37:17;9.65;;;2.67;;
75785;SDS011;64402;44.708;37.644;2023-06-14T06:39:43;8.10;;;2.60;;
75785;SDS011;64402;44.708;37.644;2023-06-14T06:42:09;9.88;;;2.70;;
75785;SDS011;64402;44.708;37.644;2023-06-14T06:44:36;16.80;;;6.15;;
75785;SDS011;64402;44.708;37.644;2023-06-14T06:47:02;16.25;;;5.30;;
75785;SDS011;64402;44.708;37.644;2023-06-14T06:49:28;6.38;;;2.67;;
75785;SDS011;64402;44.708;37.644;2023-06-14T06:52:01;14.27;;;4.00;;
75785;SDS011;64402;44.708;37.644;2023-06-14T06:54:29;7.25;;;2.65;;
75785;SDS011;64402;44.708;37.644;2023-06-14T06:56:55;8.20;;;2.47;;
75785;SDS011;64402;44.708;37.644;2023-06-14T06:59:21;21.30;;;8.27;;
75785;SDS011;64402;44.708;37.644;2023-06-14T07:01:47;18.75;;;7.93;;
75785;SDS011;64402;44.708;37.644;2023-06-14T07:04:13;19.05;;;6.65;;
75785;SDS011;64402;44.708;37.644;2023-06-14T07:06:40;16.50;;;5.32;;
75785;SDS011;64402;44.708;37.644;2023-06-14T07:09:06;12.05;;;3.15;;
75785;SDS011;64402;44.708;37.644;2023-06-14T07:11:38;10.65;;;3.30;;
75785;SDS011;64402;44.708;37.644;2023-06-14T07:16:31;11.73;;;3.53;;
75785;SDS011;64402;44.708;37.644;2023-06-14T07:18:58;6.32;;;2.58;;
75785;SDS011;64402;44.708;37.644;2023-06-14T07:21:24;8.07;;;1.90;;
75785;SDS011;64402;44.708;37.644;2023-06-14T07:23:53;8.73;;;3.15;;
75785;SDS011;64402;44.708;37.644;2023-06-14T07:26:20;9.73;;;1.67;;
75785;SDS011;64402;44.708;37.644;2023-06-14T07:28:47;8.23;;;2.60;;
75785;SDS011;64402;44.708;37.644;2023-06-14T07:31:17;6.38;;;2.08;;
75785;SDS011;64402;44.708;37.644;2023-06-14T07:33:45;5.28;;;2.13;;
75785;SDS011;64402;44.708;37.644;2023-06-14T07:36:11;4.90;;;1.83;;
75785;SDS011;64402;44.708;37.644;2023-06-14T07:38:37;12.23;;;2.60;;
75785;SDS011;64402;44.708;37.644;2023-06-14T07:41:05;7.40;;;2.58;;
75785;SDS011;64402;44.708;37.644;2023-06-14T07:43:31;9.10;;;1.60;;
75785;SDS011;64402;44.708;37.644;2023-06-14T07:45:58;7.78;;;3.00;;
75785;SDS011;64402;44.708;37.644;2023-06-14T07:48:24;4.57;;;1.88;;
75785;SDS011;64402;44.708;37.644;2023-06-14T07:50:50;7.93;;;2.55;;
75785;SDS011;64402;44.708;37.644;2023-06-14T07:53:16;8.32;;;2.13;;
75785;SDS011;64402;44.708;37.644;2023-06-14T07:55:42;5.88;;;1.73;;
75785;SDS011;64402;44.708;37.644;2023-06-14T07:58:08;7.00;;;2.05;;
75785;SDS011;64402;44.708;37.644;2023-06-14T08:00:35;6.30;;;1.85;;
75785;SDS011;64402;44.708;37.644;2023-06-14T08:03:01;9.00;;;1.77;;
75785;SDS011;64402;44.708;37.644;2023-06-14T08:05:28;6.10;;;1.73;;
75785;SDS011;64402;44.708;37.644;2023-06-14T08:07:54;5.15;;;1.75;;
75785;SDS011;64402;44.708;37.644;2023-06-14T08:10:21;5.65;;;1.60;;
75785;SDS011;64402;44.708;37.644;2023-06-14T08:12:48;8.25;;;1.70;;
75785;SDS011;64402;44.708;37.644;2023-06-14T08:17:44;5.13;;;1.88;;
75785;SDS011;64402;44.708;37.644;2023-06-14T08:20:11;7.40;;;1.77;;
75785;SDS011;64402;44.708;37.644;2023-06-14T08:22:39;4.85;;;1.70;;
75785;SDS011;64402;44.708;37.644;2023-06-14T08:25:07;6.53;;;1.75;;
75785;SDS011;64402;44.708;37.644;2023-06-14T08:27:34;5.65;;;1.88;;
75785;SDS011;64402;44.708;37.644;2023-06-14T08:30:01;6.32;;;2.00;;
75785;SDS011;64402;44.708;37.644;2023-06-14T08:32:28;10.00;;;2.30;;
75785;SDS011;64402;44.708;37.644;2023-06-14T08:34:54;4.85;;;1.77;;
75785;SDS011;64402;44.708;37.644;2023-06-14T08:37:23;3.85;;;1.55;;
75785;SDS011;64402;44.708;37.644;2023-06-14T08:39:50;8.23;;;1.95;;
75785;SDS011;64402;44.708;37.644;2023-06-14T08:42:16;9.48;;;2.03;;
75785;SDS011;64402;44.708;37.644;2023-06-14T08:44:47;6.30;;;2.03;;
75785;SDS011;64402;44.708;37.644;2023-06-14T08:47:13;6.10;;;1.80;;
75785;SDS011;64402;44.708;37.644;2023-06-14T08:49:41;6.15;;;1.70;;
75785;SDS011;64402;44.708;37.644;2023-06-14T08:52:13;6.95;;;1.70;;
75785;SDS011;64402;44.708;37.644;2023-06-14T08:54:45;7.00;;;1.67;;
75785;SDS011;64402;44.708;37.644;2023-06-14T08:57:14;6.28;;;1.60;;
75785;SDS011;64402;44.708;37.644;2023-06-14T08:59:45;7.15;;;1.88;;
75785;SDS011;64402;44.708;37.644;2023-06-14T09:02:15;8.00;;;1.63;;
75785;SDS011;64402;44.708;37.644;2023-06-14T09:04:43;5.43;;;1.98;;
75785;SDS011;64402;44.708;37.644;2023-06-14T09:07:10;7.25;;;1.95;;
75785;SDS011;64402;44.708;37.644;2023-06-14T09:09:38;4.88;;;1.45;;
75785;SDS011;64402;44.708;37.644;2023-06-14T09:12:08;5.63;;;1.80;;
75785;SDS011;64402;44.708;37.644;2023-06-14T09:14:36;4.80;;;1.40;;
75785;SDS011;64402;44.708;37.644;2023-06-14T09:17:05;5.80;;;1.65;;
75785;SDS011;64402;44.708;37.644;2023-06-14T09:19:31;4.50;;;1.42;;
75785;SDS011;64402;44.708;37.644;2023-06-14T09:21:59;5.13;;;1.45;;
75785;SDS011;64402;44.708;37.644;2023-06-14T09:24:25;5.15;;;1.70;;
75785;SDS011;64402;44.708;37.644;2023-06-14T09:26:51;4.50;;;1.60;;
75785;SDS011;64402;44.708;37.644;2023-06-14T09:29:18;4.65;;;1.60;;
75785;SDS011;64402;44.708;37.644;2023-06-14T09:31:47;3.88;;;1.45;;
75785;SDS011;64402;44.708;37.644;2023-06-14T09:34:13;7.00;;;1.52;;
75785;SDS011;64402;44.708;37.644;2023-06-14T09:36:43;8.52;;;1.50;;
75785;SDS011;64402;44.708;37.644;2023-06-14T09:39:09;5.15;;;1.40;;
75785;SDS011;64402;44.708;37.644;2023-06-14T09:41:36;5.45;;;2.28;;
75785;SDS011;64402;44.708;37.644;2023-06-14T09:44:05;6.78;;;1.40;;
75785;SDS011;64402;44.708;37.644;2023-06-14T09:46:32;5.10;;;1.50;;
75785;SDS011;64402;44.708;37.644;2023-06-14T09:49:00;5.68;;;1.80;;
75785;SDS011;64402;44.708;37.644;2023-06-14T09:53:55;3.40;;;1.25;;
75785;SDS011;64402;44.708;37.644;2023-06-14T09:56:27;3.35;;;1.10;;
75785;SDS011;64402;44.708;37.644;2023-06-14T09:58:59;7.00;;;1.65;;
75785;SDS011;64402;44.708;37.644;2023-06-14T10:01:25;4.85;;;1.52;;
75785;SDS011;64402;44.708;37.644;2023-06-14T10:04:04;4.55;;;1.40;;
75785;SDS011;64402;44.708;37.644;2023-06-14T10:06:32;5.15;;;1.70;;
75785;SDS011;64402;44.708;37.644;2023-06-14T10:09:12;8.43;;;1.15;;
75785;SDS011;64402;44.708;37.644;2023-06-14T10:11:39;3.33;;;1.25;;
75785;SDS011;64402;44.708;37.644;2023-06-14T10:14:09;4.55;;;1.08;;
75785;SDS011;64402;44.708;37.644;2023-06-14T10:16:53;6.95;;;1.58;;
75785;SDS011;64402;44.708;37.644;2023-06-14T10:19:29;3.40;;;1.10;;
75785;SDS011;64402;44.708;37.644;2023-06-14T10:22:19;4.25;;;1.38;;
75785;SDS011;64402;44.708;37.644;2023-06-14T10:24:50;5.28;;;1.27;;
75785;SDS011;64402;44.708;37.644;2023-06-14T10:27:16;4.50;;;1.15;;
75785;SDS011;64402;44.708;37.644;2023-06-14T10:32:25;3.70;;;1.10;;
75785;SDS011;64402;44.708;37.644;2023-06-14T10:34:54;5.63;;;1.38;;
75785;SDS011;64402;44.708;37.644;2023-06-14T10:37:22;4.70;;;1.05;;
75785;SDS011;64402;44.708;37.644;2023-06-14T10:39:48;2.78;;;1.00;;
75785;SDS011;64402;44.708;37.644;2023-06-14T10:42:14;3.67;;;1.23;;
75785;SDS011;64402;44.708;37.644;2023-06-14T10:47:19;2.33;;;0.90;;
75785;SDS011;64402;44.708;37.644;2023-06-14T10:49:53;4.78;;;1.50;;
75785;SDS011;64402;44.708;37.644;2023-06-14T10:52:22;6.22;;;1.20;;
75785;SDS011;64402;44.708;37.644;2023-06-14T10:57:32;3.78;;;1.10;;
75785;SDS011;64402;44.708;37.644;2023-06-14T11:00:02;4.03;;;1.10;;
75785;SDS011;64402;44.708;37.644;2023-06-14T11:09:00;3.90;;;0.93;;
75785;SDS011;64402;44.708;37.644;2023-06-14T11:11:11;4.78;;;1.17;;
75785;SDS011;64402;44.708;37.644;2023-06-14T11:13:42;3.10;;;0.90;;
75785;SDS011;64402;44.708;37.644;2023-06-14T11:16:11;4.00;;;1.10;;
75785;SDS011;64402;44.708;37.644;2023-06-14T11:18:39;4.05;;;1.00;;
75785;SDS011;64402;44.708;37.644;2023-06-14T11:21:05;3.50;;;1.20;;
75785;SDS011;64402;44.708;37.644;2023-06-14T11:25:57;2.05;;;0.68;;
75785;SDS011;64402;44.708;37.644;2023-06-14T11:28:23;1.70;;;0.88;;
75785;SDS011;64402;44.708;37.644;2023-06-14T11:31:03;2.38;;;0.80;;
75785;SDS011;64402;44.708;37.644;2023-06-14T11:33:29;5.00;;;0.80;;
75785;SDS011;64402;44.708;37.644;2023-06-14T11:35:55;2.35;;;0.82;;
75785;SDS011;64402;44.708;37.644;2023-06-14T11:38:23;4.63;;;1.00;;
75785;SDS011;64402;44.708;37.644;2023-06-14T11:40:49;4.97;;;1.00;;
75785;SDS011;64402;44.708;37.644;2023-06-14T11:43:15;4.05;;;0.82;;
75785;SDS011;64402;44.708;37.644;2023-06-14T11:45:42;4.03;;;1.08;;
75785;SDS011;64402;44.708;37.644;2023-06-14T11:48:08;4.65;;;1.15;;
75785;SDS011;64402;44.708;37.644;2023-06-14T11:50:37;4.13;;;1.00;;
75785;SDS011;64402;44.708;37.644;2023-06-14T11:53:04;3.65;;;1.17;;
75785;SDS011;64402;44.708;37.644;2023-06-14T11:55:38;5.20;;;1.20;;
75785;SDS011;64402;44.708;37.644;2023-06-14T12:00:32;4.95;;;1.02;;
75785;SDS011;64402;44.708;37.644;2023-06-14T12:02:58;3.08;;;1.15;;
75785;SDS011;64402;44.708;37.644;2023-06-14T12:05:25;4.03;;;1.00;;
75785;SDS011;64402;44.708;37.644;2023-06-14T12:07:57;4.80;;;1.27;;
75785;SDS011;64402;44.708;37.644;2023-06-14T12:10:39;5.25;;;0.90;;
75785;SDS011;64402;44.708;37.644;2023-06-14T12:13:06;3.60;;;1.00;;
75785;SDS011;64402;44.708;37.644;2023-06-14T12:15:33;2.67;;;0.88;;
75785;SDS011;64402;44.708;37.644;2023-06-14T12:17:59;2.58;;;0.95;;
75785;SDS011;64402;44.708;37.644;2023-06-14T12:20:29;4.32;;;1.17;;
75785;SDS011;64402;44.708;37.644;2023-06-14T12:22:57;4.10;;;1.15;;
75785;SDS011;64402;44.708;37.644;2023-06-14T12:25:35;2.67;;;0.82;;
75785;SDS011;64402;44.708;37.644;2023-06-14T12:28:05;4.18;;;1.10;;
75785;SDS011;64402;44.708;37.644;2023-06-14T12:30:35;5.65;;;1.27;;
75785;SDS011;64402;44.708;37.644;2023-06-14T12:33:03;4.85;;;1.10;;
75785;SDS011;64402;44.708;37.644;2023-06-14T12:35:29;3.42;;;1.10;;
75785;SDS011;64402;44.708;37.644;2023-06-14T12:37:55;5.90;;;1.10;;
75785;SDS011;64402;44.708;37.644;2023-06-14T12:40:22;5.70;;;1.35;;
75785;SDS011;64402;44.708;37.644;2023-06-14T12:42:49;4.32;;;0.93;;
75785;SDS011;64402;44.708;37.644;2023-06-14T12:45:15;3.53;;;0.93;;
75785;SDS011;64402;44.708;37.644;2023-06-14T12:47:41;5.10;;;1.10;;
75785;SDS011;64402;44.708;37.644;2023-06-14T12:50:08;5.18;;;1.10;;
75785;SDS011;64402;44.708;37.644;2023-06-14T12:52:34;3.65;;;1.13;;
75785;SDS011;64402;44.708;37.644;2023-06-14T12:55:06;5.65;;;1.20;;
75785;SDS011;64402;44.708;37.644;2023-06-14T12:57:32;3.80;;;1.10;;
75785;SDS011;64402;44.708;37.644;2023-06-14T13:00:00;2.95;;;0.98;;
75785;SDS011;64402;44.708;37.644;2023-06-14T13:02:26;12.10;;;1.50;;
75785;SDS011;64402;44.708;37.644;2023-06-14T13:04:52;8.43;;;1.42;;
75785;SDS011;64402;44.708;37.644;2023-06-14T13:07:18;6.35;;;1.42;;
75785;SDS011;64402;44.708;37.644;2023-06-14T13:09:44;5.53;;;1.38;;
75785;SDS011;64402;44.708;37.644;2023-06-14T13:14:38;5.40;;;1.20;;
75785;SDS011;64402;44.708;37.644;2023-06-14T13:17:09;8.13;;;1.90;;
75785;SDS011;64402;44.708;37.644;2023-06-14T13:19:36;4.70;;;1.45;;
75785;SDS011;64402;44.708;37.644;2023-06-14T13:22:03;6.50;;;1.67;;
75785;SDS011;64402;44.708;37.644;2023-06-14T13:24:30;11.18;;;1.50;;
75785;SDS011;64402;44.708;37.644;2023-06-14T13:26:57;5.80;;;1.30;;
75785;SDS011;64402;44.708;37.644;2023-06-14T13:29:23;4.93;;;1.23;;
75785;SDS011;64402;44.708;37.644;2023-06-14T13:31:50;8.90;;;1.38;;
75785;SDS011;64402;44.708;37.644;2023-06-14T13:34:16;8.80;;;1.70;;
75785;SDS011;64402;44.708;37.644;2023-06-14T13:36:42;8.13;;;1.40;;
75785;SDS011;64402;44.708;37.644;2023-06-14T13:39:08;4.05;;;1.50;;
75785;SDS011;64402;44.708;37.644;2023-06-14T13:41:36;8.40;;;1.30;;
75785;SDS011;64402;44.708;37.644;2023-06-14T13:44:02;6.25;;;1.30;;
75785;SDS011;64402;44.708;37.644;2023-06-14T13:46:31;5.82;;;1.60;;
75785;SDS011;64402;44.708;37.644;2023-06-14T13:48:58;2.72;;;1.13;;
75785;SDS011;64402;44.708;37.644;2023-06-14T13:51:26;8.05;;;1.30;;
75785;SDS011;64402;44.708;37.644;2023-06-14T13:53:52;3.70;;;1.23;;
75785;SDS011;64402;44.708;37.644;2023-06-14T13:56:19;2.67;;;1.02;;
75785;SDS011;64402;44.708;37.644;2023-06-14T14:01:12;4.38;;;1.05;;
75785;SDS011;64402;44.708;37.644;2023-06-14T14:03:38;3.03;;;0.90;;
75785;SDS011;64402;44.708;37.644;2023-06-14T14:06:07;3.28;;;0.98;;
75785;SDS011;64402;44.708;37.644;2023-06-14T14:08:33;2.83;;;0.95;;
75785;SDS011;64402;44.708;37.644;2023-06-14T14:11:00;5.95;;;1.27;;
75785;SDS011;64402;44.708;37.644;2023-06-14T14:13:28;7.57;;;1.30;;
75785;SDS011;64402;44.708;37.644;2023-06-14T14:15:55;3.17;;;1.17;;
75785;SDS011;64402;44.708;37.644;2023-06-14T14:20:47;5.68;;;1.17;;
75785;SDS011;64402;44.708;37.644;2023-06-14T14:23:14;4.00;;;1.23;;
75785;SDS011;64402;44.708;37.644;2023-06-14T14:25:40;3.05;;;0.90;;
75785;SDS011;64402;44.708;37.644;2023-06-14T14:28:06;7.18;;;1.10;;
75785;SDS011;64402;44.708;37.644;2023-06-14T14:30:32;3.45;;;1.00;;
75785;SDS011;64402;44.708;37.644;2023-06-14T14:32:59;4.15;;;1.13;;
75785;SDS011;64402;44.708;37.644;2023-06-14T14:35:25;3.13;;;1.00;;
75785;SDS011;64402;44.708;37.644;2023-06-14T14:37:56;3.72;;;1.17;;
75785;SDS011;64402;44.708;37.644;2023-06-14T14:40:22;3.75;;;1.02;;
75785;SDS011;64402;44.708;37.644;2023-06-14T14:42:48;9.32;;;1.60;;
75785;SDS011;64402;44.708;37.644;2023-06-14T14:45:14;4.03;;;1.20;;
75785;SDS011;64402;44.708;37.644;2023-06-14T14:47:41;6.68;;;1.25;;
75785;SDS011;64402;44.708;37.644;2023-06-14T14:50:07;6.50;;;1.30;;
75785;SDS011;64402;44.708;37.644;2023-06-14T14:52:36;7.00;;;1.38;;
75785;SDS011;64402;44.708;37.644;2023-06-14T14:55:02;2.67;;;1.00;;
75785;SDS011;64402;44.708;37.644;2023-06-14T14:57:29;4.68;;;1.10;;
75785;SDS011;64402;44.708;37.644;2023-06-14T14:59:56;2.88;;;1.20;;
75785;SDS011;64402;44.708;37.644;2023-06-14T15:02:22;3.70;;;0.93;;
75785;SDS011;64402;44.708;37.644;2023-06-14T15:04:49;3.55;;;1.13;;
75785;SDS011;64402;44.708;37.644;2023-06-14T15:07:15;4.85;;;1.30;;
75785;SDS011;64402;44.708;37.644;2023-06-14T15:09:41;6.45;;;1.45;;
75785;SDS011;64402;44.708;37.644;2023-06-14T15:12:08;2.75;;;0.98;;
75785;SDS011;64402;44.708;37.644;2023-06-14T15:14:36;10.63;;;2.80;;
75785;SDS011;64402;44.708;37.644;2023-06-14T15:17:02;7.63;;;1.98;;